Nearby METAR Reports

METAR is the scheduled surface weather observation taken hourly at civil and military airport locations.

METAR is an acronym from the French language and roughly translates as Aviation Routine Weather Report.

 

EGPL - Benbecula Island, United Kingdom
Distance from station: WNW 41mi, 66km
Updated: 16/07/2018 08:50
Nearby showers, Mostly cloudy
Nearby showers, Mostly cloudy
 Wind from SSW
Wind: SSW 15 mph , 24 km/h
Temperature: 14°C
Dew Point: 11°C
Humidity: 82%
Barometer: 1009 hPa
Summary: Nearby Showers
Clouds: Mostly cloudy
Visibility: 6 miles , 10 km
Cloud details: Few Clouds 579 m
Mostly cloudy 1280 m
2018/07/16 07:50 EGPL 160750Z 21013KT 9999 VCSH FEW019 BKN042 14/11 Q1009
EGPU - Tiree Island, United Kingdom
Distance from station: SSW 56mi, 90km
Updated: 16/07/2018 08:50
Few Clouds
Few Clouds
 Wind from SW
Wind: SW 9 mph , 15 km/h
Temperature: 15°C
Dew Point: 12°C
Humidity: 82%
Barometer: 1010 hPa
Clouds: Few Clouds
Visibility: 6 miles , 10 km
Cloud details: Few Clouds 853 m
2018/07/16 07:50 EGPU 160750Z 22008KT 9999 FEW028 15/12 Q1010
 
EGEO - Oban Airport, United Kingdom
Distance from station: SE 65mi, 105km
Updated: 16/07/2018 08:50
Mostly cloudy
Mostly cloudy
 Wind from WSW
Wind: WSW 9 mph , 15 km/h
Temperature: 14°C
Dew Point: 12°C
Humidity: 88%
Barometer: 1011 hPa
Clouds: Mostly cloudy
Visibility: 6 miles , 10 km
Cloud details: Few Clouds 213 m
Partly cloudy 427 m
Mostly cloudy 1433 m
2018/07/16 07:50 EGEO 160750Z 24008KT 9999 FEW007 SCT014 BKN047 14/12 Q1011
EGPO - Stornoway, United Kingdom
Distance from station: 0 66mi, 106km
Updated: 16/07/2018 08:50
Few Clouds
Few Clouds
 Wind from SSW
Wind: SSW 15 mph , 24 km/h
Temperature: 15°C
Dew Point: 12°C
Humidity: 82%
Barometer: 1009 hPa
Clouds: Few Clouds
Visibility: 6 miles , 10 km
Cloud details: Few Clouds 488 m
2018/07/16 07:50 EGPO 160750Z 20013KT 9999 FEW016 15/12 Q1009
 
EGPE - Inverness/Dalcro, United Kingdom
Distance from station: ENE 88mi, 141km
Updated: 16/07/2018 08:50
Mostly cloudy
Mostly cloudy
 Wind from WSW
Wind: WSW 13 mph , 20 km/h
Temperature: 15°C
Dew Point: 14°C
Humidity: 94%
Barometer: 1010 hPa
Clouds: Mostly cloudy
Visibility: 6 miles , 10 km
Cloud details: Few Clouds 244 m
Mostly cloudy 671 m
2018/07/16 07:50 EGPE 160750Z 24011KT 9999 FEW008 BKN022 15/14 Q1010
EGQA - Tain Range (saws, United Kingdom
Distance from station: ENE 97mi, 156km
Updated: 16/07/2018 08:50
Mostly cloudy
Mostly cloudy
 Wind from ESE
Wind: ESE 7 mph , 11 km/h
Clouds: Mostly cloudy
Visibility: 6 miles , 10 km
Cloud details: Few Clouds 305 m
Partly cloudy 610 m
Mostly cloudy 1067 m
2018/07/16 07:50 EGQA 160750Z 11006KT 9999 FEW010 SCT020 BKN035 15/// Q1010 WHT
 
EGQK - Kinloss Raf, United Kingdom
Distance from station: ENE 107mi, 171km
Updated: 16/07/2018 08:50
Mostly cloudy
Mostly cloudy
 Wind from WSW
Wind: WSW 8 mph , 13 km/h
Temperature: 16°C
Dew Point: 14°C
Humidity: 88%
Barometer: 1010 hPa
Clouds: Mostly cloudy
Visibility: 6 miles , 10 km
Cloud details: Few Clouds 396 m
Mostly cloudy 1036 m
2018/07/16 07:50 EGQK 160750Z AUTO 24007KT 9999 FEW013/// BKN034/// 16/14 Q1010
EGPI - Islay/Port Ellen, United Kingdom
Distance from station: S 110mi, 177km
Updated: 16/07/2018 08:50
Partly cloudy
Partly cloudy
 Wind from SW
Wind: SW 10 mph , 17 km/h
Temperature: 15°C
Dew Point: 12°C
Humidity: 82%
Barometer: 1011 hPa
Clouds: Partly cloudy
Visibility: 6 miles , 10 km
Cloud details: Partly cloudy 1494 m
2018/07/16 07:50 EGPI 160750Z 23009KT 9999 SCT049 15/12 Q1011
 
EGQS - Lossiemouth Raf, United Kingdom
Distance from station: ENE 117mi, 188km
Updated: 16/07/2018 09:04
Mostly cloudy
Mostly cloudy
 Wind from W
Wind: W 5 mph , 7 km/h
Temperature: 16°C
Dew Point: 14°C
Humidity: 88%
Barometer: 1010 hPa
Clouds: Mostly cloudy
Visibility: 6 miles , 10 km
Cloud details: Few Clouds 152 m
Mostly cloudy 1006 m
2018/07/16 08:04 EGQS 160804Z 27004KT 9999 FEW005 BKN033 16/14 Q1010 BLU TEMPO SCT014 GRN
EGPF - Glasgow Airport, United Kingdom
Distance from station: SE 121mi, 195km
Updated: 16/07/2018 08:50
Overcast
Overcast
 Wind from W
Wind: W 6 mph , 9 km/h
Temperature: 15°C
Dew Point: 13°C
Humidity: 88%
Barometer: 1012 hPa
Clouds: Overcast
Visibility: 6 miles , 10 km
Cloud details: Overcast 792 m
2018/07/16 07:50 EGPF 160750Z AUTO 26005KT 9999 OVC026 15/13 Q1012
 
EGEC - Campbeltown, United Kingdom
Distance from station: SSE 129mi, 207km
Updated: 16/07/2018 08:50
Mostly cloudy
Mostly cloudy
 Wind from WSW
Wind: WSW 9 mph , 15 km/h
Temperature: 15°C
Dew Point: 12°C
Humidity: 82%
Barometer: 1012 hPa
Clouds: Mostly cloudy
Visibility: 6 miles , 10 km
Cloud details: Few Clouds 549 m
Mostly cloudy 1372 m
2018/07/16 07:50 EGEC 160750Z 24008KT 9999 FEW018 BKN045 15/12 Q1012
EGPN - Dundee/Riverside, United Kingdom
Distance from station: ESE 137mi, 221km
Updated: 16/07/2018 08:50
Mostly cloudy
Mostly cloudy
 Wind from SW
Wind: SW 7 mph , 11 km/h
Temperature: 18°C
Dew Point: 16°C
Humidity: 88%
Barometer: 1010 hPa
Clouds: Mostly cloudy
Visibility: 6 miles , 10 km
Cloud details: Few Clouds 305 m
Mostly cloudy 610 m
2018/07/16 07:50 EGPN 160750Z 22006KT 9999 FEW010 BKN020 18/16 Q1010
 
EGPK - Prestwick(Civ/Na, United Kingdom
Distance from station: SSE 139mi, 224km
Updated: 16/07/2018 08:50
Mostly cloudy
Mostly cloudy
 Wind from W
Wind: W 8 mph , 13 km/h
Temperature: 15°C
Dew Point: 13°C
Humidity: 88%
Barometer: 1012 hPa
Clouds: Mostly cloudy
Visibility: 6 miles , 10 km
Cloud details: Few Clouds 305 m
Mostly cloudy 914 m
2018/07/16 07:50 EGPK 160750Z 26007KT 9999 FEW010 BKN030 15/13 Q1012
EGQL - Leuchars Raf, United Kingdom
Distance from station: ESE 145mi, 233km
Updated: 16/07/2018 08:50
Overcast
Overcast
 Wind from SW
Wind: SW 9 mph , 15 km/h
Temperature: 18°C
Dew Point: 16°C
Humidity: 88%
Barometer: 1010 hPa
Clouds: Overcast
Visibility: 6 miles , 10 km
Cloud details: Overcast 457 m
2018/07/16 07:50 EGQL 160750Z 23008KT 9999 OVC015 18/16 Q1010 WHT
 
EGPH - Edinburgh Airpor, United Kingdom
Distance from station: SE 145mi, 234km
Updated: 16/07/2018 08:50
Mostly cloudy
Mostly cloudy
 Wind from WSW
Wind: WSW 9 mph , 15 km/h
Temperature: 16°C
Dew Point: 14°C
Humidity: 88%
Barometer: 1011 hPa
Clouds: Mostly cloudy
Visibility: 6 miles , 10 km
Cloud details: Few Clouds 396 m
Mostly cloudy 762 m
2018/07/16 07:50 EGPH 160750Z 25008KT 9999 FEW013 BKN025 16/14 Q1011
EGPC - Wick, United Kingdom
Distance from station: NE 146mi, 234km
Updated: 16/07/2018 08:50
Light rain, Drizzle, Mist, Mostly cloudy
Light rain, Drizzle, Mist, Mostly cloudy
 Wind from N
Wind: N 6 mph , 9 km/h
Temperature: 13°C
Dew Point: 12°C
Humidity: 94%
Barometer: 1010 hPa
Summary: Light rain, Drizzle, Mist
Clouds: Mostly cloudy
Visibility: 2 miles , 3 km
Cloud details: Few Clouds 61 m
Mostly cloudy 427 m
2018/07/16 07:50 EGPC 160750Z 35005KT 3000 -RADZ BR FEW002 BKN014 13/12 Q1010

-

free counters
QR Code Twitter Scottish Weather Network UK Weather Network
Argyll House B & B

Argyll House B & B is situated in North West Skye and is the perfect base to see all that the Isle of Skye has to offer.
We are now full for 2018 - Bookings been taken for 2019.